Absecon, New Jersey
Current Conditions -  °F | °C
As of 12:29 AM on Saturday 01 Nov 2014 (Local Time) from KACY Reporting Station
Broken Clouds Broken Clouds  
Wind Chill: 11°   Ceiling: 2200
Heat Index: 11°   Visibility: 10mi
Dew Point:   Wind: 7mph
Humidity: 89%   Direction: 360°N
Pressure: 29.76"   Gusts: NA
Location:  39.43°N, 74.51°W
Report Text: KACY 010429Z 36006KT 10SM SCT017 BKN022 BKN075 11/09 A2976 RMK AO2 T01060089
Loading
Personal Weather Stations






























Interactive Weather Map
Tropical Storm Tracking
New forecast layout! Learn more

10-Day Weather Forecast

Advertisements
Track Severe Weather on mobile